Time;durP1;ratioP1;P1;durP2;ratioP2;P2;SDS_P1;SDS_P2;PMS_P1;PMS_P2;Temp;Humidity;BMP_temperature;BMP_pressure;BME280_temperature;BME280_humidity;BME280_pressure;Samples;Min_cycle;Max_cycle;Signal;HPM_P1;HPM_P2
2024/01/21 00:00:48;;;;;;;29.02;22.33;;;0.10;99.90;;;;;;5073888;28;20049;-77
2024/01/21 00:03:14;;;;;;;29.77;23.38;;;0.10;99.90;;;;;;5083603;28;20048;-76
2024/01/21 00:05:41;;;;;;;32.13;22.85;;;0.10;99.90;;;;;;5083877;28;20051;-77
2024/01/21 00:08:06;;;;;;;10.65;6.88;;;0.10;99.90;;;;;;5085594;28;20054;-76
2024/01/21 00:10:32;;;;;;;28.33;22.90;;;0.10;99.90;;;;;;5076229;28;20397;-77
2024/01/21 00:12:58;;;;;;;29.27;21.65;;;0.10;99.90;;;;;;5089669;28;20047;-77
2024/01/21 00:15:23;;;;;;;27.77;21.63;;;0.20;99.90;;;;;;5085262;28;20090;-77
2024/01/21 00:17:49;;;;;;;28.40;22.17;;;0.20;99.90;;;;;;5078700;28;20051;-76
2024/01/21 00:20:15;;;;;;;27.08;21.10;;;0.20;99.90;;;;;;5085519;28;20039;-76
2024/01/21 00:22:40;;;;;;;28.77;22.33;;;0.20;99.90;;;;;;5079659;28;20511;-77
2024/01/21 00:25:09;;;;;;;29.80;23.65;;;0.30;99.90;;;;;;5082444;28;20123;-77
2024/01/21 00:27:35;;;;;;;30.33;21.65;;;0.30;99.90;;;;;;5076802;28;20115;-77
2024/01/21 00:30:02;;;;;;;28.65;23.23;;;0.30;99.90;;;;;;5074321;28;20716;-77
2024/01/21 00:32:28;;;;;;;30.42;21.40;;;0.30;99.90;;;;;;5084579;28;20041;-77
2024/01/21 00:34:53;;;;;;;26.50;19.38;;;0.40;99.90;;;;;;5084756;28;20047;-77
2024/01/21 00:37:19;;;;;;;17.48;9.73;;;0.40;99.90;;;;;;5075132;28;20044;-77
2024/01/21 00:39:50;;;;;;;26.77;20.35;;;0.40;99.90;;;;;;5086763;28;20055;-77
2024/01/21 00:42:15;;;;;;;25.38;19.85;;;0.40;99.90;;;;;;5086827;28;20068;-77
2024/01/21 00:44:41;;;;;;;26.92;19.33;;;0.40;99.90;;;;;;5082489;28;20083;-77
2024/01/21 00:47:06;;;;;;;23.52;17.63;;;0.40;99.90;;;;;;5087902;28;20036;-77
2024/01/21 00:49:32;;;;;;;24.80;20.95;;;0.40;99.90;;;;;;5085373;28;20043;-76
2024/01/21 00:51:58;;;;;;;24.02;18.85;;;0.40;99.90;;;;;;5090964;28;20044;-77
2024/01/21 00:54:24;;;;;;;27.52;18.40;;;0.40;99.90;;;;;;5075086;28;20756;-76
2024/01/21 00:56:50;;;;;;;24.00;18.58;;;0.40;99.90;;;;;;5077515;28;20044;-77
2024/01/21 00:59:15;;;;;;;25.33;18.58;;;0.40;99.90;;;;;;5095052;28;20075;-76
2024/01/21 01:01:41;;;;;;;26.75;18.98;;;0.40;99.90;;;;;;5087054;28;20186;-76
2024/01/21 01:04:07;;;;;;;24.35;17.70;;;0.40;99.90;;;;;;5082226;28;20055;-76
2024/01/21 01:06:33;;;;;;;22.98;18.25;;;0.30;99.90;;;;;;5078680;28;20047;-77
2024/01/21 01:08:59;;;;;;;27.23;19.27;;;0.40;99.90;;;;;;5082735;28;20048;-77
2024/01/21 01:11:27;;;;;;;23.63;17.40;;;0.30;99.90;;;;;;5075781;28;20765;-76
2024/01/21 01:13:53;;;;;;;23.13;17.67;;;0.30;99.90;;;;;;5076572;28;20071;-77
2024/01/21 01:16:18;;;;;;;22.38;17.90;;;0.30;99.90;;;;;;5080780;28;20040;-77
2024/01/21 01:18:44;;;;;;;21.67;17.27;;;0.30;99.90;;;;;;5080426;28;20048;-76
2024/01/21 01:21:10;;;;;;;25.25;18.02;;;0.20;99.90;;;;;;5069514;28;20055;-77
2024/01/21 01:23:36;;;;;;;26.35;18.30;;;0.30;99.90;;;;;;5077103;28;20482;-77
2024/01/21 01:26:02;;;;;;;23.52;17.00;;;0.20;99.90;;;;;;5079300;28;20044;-76
2024/01/21 01:28:27;;;;;;;20.73;16.70;;;0.20;99.90;;;;;;5078574;28;20092;-77
2024/01/21 01:30:53;;;;;;;25.35;17.58;;;0.20;99.90;;;;;;5071711;28;20045;-76
2024/01/21 01:33:18;;;;;;;21.38;16.83;;;0.20;99.90;;;;;;5070668;28;20173;-76
2024/01/21 01:35:44;;;;;;;22.55;15.95;;;0.20;99.90;;;;;;5087129;28;20048;-76
2024/01/21 01:38:12;;;;;;;20.95;16.10;;;0.20;99.90;;;;;;5084168;28;20177;-76
2024/01/21 01:40:38;;;;;;;22.05;16.05;;;0.20;99.90;;;;;;5080320;28;20075;-76
2024/01/21 01:43:03;;;;;;;20.98;15.48;;;0.30;99.90;;;;;;5081518;28;20409;-76
2024/01/21 01:45:29;;;;;;;19.67;14.55;;;0.30;99.90;;;;;;5086429;28;20127;-76
2024/01/21 01:47:56;;;;;;;18.40;14.60;;;0.30;99.90;;;;;;5076115;28;20044;-76
2024/01/21 01:50:23;;;;;;;17.02;14.00;;;0.30;99.90;;;;;;5074201;28;20429;-76
2024/01/21 01:52:49;;;;;;;15.68;13.85;;;0.30;99.90;;;;;;5075430;28;20096;-76
2024/01/21 01:55:15;;;;;;;18.60;13.20;;;0.40;99.90;;;;;;5072243;28;20052;-76
2024/01/21 01:57:41;;;;;;;15.30;12.93;;;0.40;99.90;;;;;;5087083;28;20051;-76
2024/01/21 02:00:07;;;;;;;15.85;11.95;;;0.40;99.90;;;;;;5074464;28;20688;-76
2024/01/21 02:02:34;;;;;;;12.43;11.13;;;0.40;99.90;;;;;;5077141;28;20040;-76
2024/01/21 02:05:03;;;;;;;16.13;11.65;;;0.50;99.90;;;;;;5082487;28;20055;-76
2024/01/21 02:07:29;;;;;;;14.07;12.00;;;0.50;99.90;;;;;;5079341;28;20044;-76
2024/01/21 02:09:55;;;;;;;14.55;10.40;;;0.60;99.90;;;;;;5086702;28;20040;-76
2024/01/21 02:12:20;;;;;;;12.40;10.38;;;0.60;99.90;;;;;;5083812;28;20033;-76
2024/01/21 02:14:46;;;;;;;14.25;10.23;;;0.60;99.90;;;;;;5081918;28;20044;-76
2024/01/21 02:17:13;;;;;;;12.02;10.77;;;0.60;99.90;;;;;;5079228;28;20061;-76
2024/01/21 02:19:38;;;;;;;14.55;10.40;;;0.70;99.90;;;;;;5084186;28;20044;-76
2024/01/21 02:22:04;;;;;;;14.15;9.95;;;0.70;99.90;;;;;;5079464;28;20051;-76
2024/01/21 02:24:31;;;;;;;13.75;10.82;;;0.70;99.90;;;;;;5077854;28;20076;-76
2024/01/21 02:26:58;;;;;;;11.38;10.07;;;0.70;99.90;;;;;;5074333;28;20059;-76
2024/01/21 02:29:24;;;;;;;12.77;9.77;;;0.70;99.90;;;;;;5073163;28;20063;-76
2024/01/21 02:31:54;;;;;;;11.50;9.23;;;0.70;99.90;;;;;;5076440;28;20451;-76
2024/01/21 02:34:20;;;;;;;12.90;9.90;;;0.80;99.90;;;;;;5089503;28;20044;-76
2024/01/21 02:36:46;;;;;;;13.35;9.98;;;0.80;99.90;;;;;;5079976;28;20404;-76
2024/01/21 02:39:12;;;;;;;11.18;9.43;;;0.80;99.90;;;;;;5079160;28;20548;-76
2024/01/21 02:41:38;;;;;;;10.98;9.52;;;0.90;99.90;;;;;;5086585;28;20119;-76
2024/01/21 02:44:03;;;;;;;10.90;9.10;;;0.90;99.90;;;;;;5083469;28;20044;-76
2024/01/21 02:46:29;;;;;;;12.75;9.15;;;0.90;99.90;;;;;;5079003;28;20048;-76
2024/01/21 02:48:54;;;;;;;11.02;9.07;;;0.90;99.90;;;;;;5072119;28;20049;-76
2024/01/21 02:51:20;;;;;;;9.88;8.52;;;0.90;99.90;;;;;;5073968;28;20052;-76
2024/01/21 02:53:46;;;;;;;11.02;8.88;;;0.90;99.90;;;;;;5077092;28;20047;-76
2024/01/21 02:56:22;;;;;;;9.93;8.50;;;0.90;99.90;;;;;;5084974;28;20040;-76
2024/01/21 02:58:49;;;;;;;9.98;8.10;;;0.90;99.90;;;;;;5078201;28;20078;-76
2024/01/21 03:01:16;;;;;;;11.73;8.90;;;0.90;99.90;;;;;;5072725;28;20089;-76
2024/01/21 03:03:42;;;;;;;10.07;9.02;;;0.90;99.90;;;;;;5081246;28;20066;-75
2024/01/21 03:06:07;;;;;;;10.02;7.88;;;0.90;99.90;;;;;;5077701;28;20744;-76
2024/01/21 03:08:33;;;;;;;13.32;8.63;;;0.90;99.90;;;;;;5085479;28;20036;-76
2024/01/21 03:11:03;;;;;;;9.18;7.90;;;1.00;99.90;;;;;;5080937;28;20052;-76
2024/01/21 03:13:29;;;;;;;10.93;8.48;;;1.00;99.90;;;;;;5078640;28;20047;-76
2024/01/21 03:15:56;;;;;;;11.77;8.73;;;1.00;99.90;;;;;;5085524;28;20044;-76
2024/01/21 03:18:21;;;;;;;8.75;7.63;;;1.00;99.90;;;;;;5066391;28;20040;-76
2024/01/21 03:20:47;;;;;;;9.95;6.93;;;1.00;99.90;;;;;;5081522;28;20121;-75
2024/01/21 03:23:13;;;;;;;11.75;7.82;;;1.00;99.90;;;;;;5079488;28;20044;-76
2024/01/21 03:25:39;;;;;;;9.20;6.85;;;1.10;99.90;;;;;;5084811;28;20036;-76
2024/01/21 03:28:05;;;;;;;7.25;6.38;;;1.10;99.90;;;;;;5081056;28;20044;-76
2024/01/21 03:30:31;;;;;;;8.20;6.97;;;1.10;99.90;;;;;;5080663;28;20044;-75
2024/01/21 03:32:56;;;;;;;8.27;6.88;;;1.10;99.90;;;;;;5084142;28;20047;-76
2024/01/21 03:35:22;;;;;;;9.30;6.38;;;1.10;99.90;;;;;;5080634;28;20148;-74
2024/01/21 03:37:48;;;;;;;7.18;5.95;;;1.10;99.90;;;;;;5084003;28;20040;-76
2024/01/21 03:40:14;;;;;;;11.45;6.35;;;1.20;99.90;;;;;;5087712;28;20453;-76
2024/01/21 03:42:39;;;;;;;8.45;6.82;;;1.20;99.90;;;;;;5076851;28;20090;-75
2024/01/21 03:45:06;;;;;;;6.78;5.68;;;1.30;99.90;;;;;;5075285;28;20083;-75
2024/01/21 03:47:31;;;;;;;6.15;5.32;;;1.30;99.90;;;;;;5086855;28;20513;-75
2024/01/21 03:49:58;;;;;;;6.65;5.20;;;1.40;99.90;;;;;;5081411;28;20191;-76
2024/01/21 03:52:23;;;;;;;10.18;6.40;;;1.40;99.90;;;;;;5067115;28;20109;-76
2024/01/21 03:54:49;;;;;;;8.02;6.28;;;1.40;99.90;;;;;;5076094;28;20056;-76
2024/01/21 03:57:15;;;;;;;8.05;5.85;;;1.40;99.90;;;;;;5069077;28;20064;-76
2024/01/21 03:59:40;;;;;;;6.13;4.93;;;1.40;99.90;;;;;;5071633;28;20167;-76
2024/01/21 04:02:06;;;;;;;7.38;5.43;;;1.40;99.90;;;;;;5092290;28;20075;-75
2024/01/21 04:04:32;;;;;;;14.73;5.35;;;1.40;99.90;;;;;;5082699;28;20047;-75
2024/01/21 04:06:57;;;;;;;8.23;5.93;;;1.40;99.90;;;;;;5060186;28;20048;-75
2024/01/21 04:09:23;;;;;;;7.22;5.55;;;1.40;99.90;;;;;;5069410;28;20119;-76
2024/01/21 04:11:52;;;;;;;8.35;6.30;;;1.40;99.90;;;;;;5076456;28;20047;-76
2024/01/21 04:14:17;;;;;;;;;;;1.30;99.90;;;;;;5081955;28;20052;-76
2024/01/21 04:16:43;;;;;;;7.30;5.78;;;1.30;99.90;;;;;;5084226;28;19927;-75
2024/01/21 04:19:09;;;;;;;5.57;4.40;;;1.30;99.90;;;;;;5072453;28;20048;-75
2024/01/21 04:21:35;;;;;;;7.10;5.28;;;1.30;99.90;;;;;;5083311;28;20047;-75
2024/01/21 04:24:04;;;;;;;6.97;5.07;;;1.30;99.90;;;;;;5087210;28;20414;-76
2024/01/21 04:26:30;;;;;;;6.35;5.47;;;1.30;99.90;;;;;;5088048;28;20502;-75
2024/01/21 04:28:56;;;;;;;7.82;5.18;;;1.30;99.90;;;;;;5089779;28;20070;-75
2024/01/21 04:31:22;;;;;;;6.22;4.63;;;1.30;99.90;;;;;;5080200;28;20043;-75
2024/01/21 04:33:48;;;;;;;6.82;5.03;;;1.30;99.90;;;;;;5084004;28;20117;-75
2024/01/21 04:36:18;;;;;;;6.85;4.70;;;1.30;99.90;;;;;;5088171;28;20067;-75
2024/01/21 04:38:44;;;;;;;5.78;4.45;;;1.30;99.90;;;;;;5083150;28;20051;-75
2024/01/21 04:41:15;;;;;;;9.60;5.07;;;1.30;99.90;;;;;;5085685;28;20055;-75
2024/01/21 04:43:42;;;;;;;6.53;4.60;;;1.30;99.90;;;;;;5073699;28;20040;-75
2024/01/21 04:46:08;;;;;;;8.73;4.50;;;1.20;99.90;;;;;;5084423;28;20052;-75
2024/01/21 04:48:33;;;;;;;7.68;5.07;;;1.20;99.90;;;;;;5083908;28;20397;-76
2024/01/21 04:50:59;;;;;;;5.43;4.07;;;1.20;99.90;;;;;;5079820;28;20048;-75
2024/01/21 04:53:25;;;;;;;4.85;4.35;;;1.20;99.90;;;;;;5085238;28;20052;-76
2024/01/21 04:55:51;;;;;;;6.63;4.18;;;1.20;99.90;;;;;;5076099;28;20048;-75
2024/01/21 04:58:16;;;;;;;5.72;4.35;;;1.20;99.90;;;;;;5083345;28;20079;-75
2024/01/21 05:00:42;;;;;;;6.55;4.43;;;1.20;99.90;;;;;;5074924;28;20059;-75
2024/01/21 05:03:08;;;;;;;7.55;4.85;;;1.20;99.90;;;;;;5081886;28;20044;-75
2024/01/21 05:05:35;;;;;;;15.13;4.70;;;1.20;99.90;;;;;;5070141;28;20072;-75
2024/01/21 05:08:00;;;;;;;6.88;4.43;;;1.20;99.90;;;;;;5082802;28;20044;-76
2024/01/21 05:10:27;;;;;;;4.65;3.70;;;1.20;99.90;;;;;;5080972;28;20133;-75
2024/01/21 05:12:53;;;;;;;5.13;3.58;;;1.20;99.90;;;;;;5081750;28;20052;-75
2024/01/21 05:15:18;;;;;;;5.85;4.10;;;1.20;99.90;;;;;;5087631;28;20052;-75
2024/01/21 05:17:44;;;;;;;5.63;4.15;;;1.20;99.90;;;;;;5089513;28;20036;-76
2024/01/21 05:20:10;;;;;;;6.90;3.83;;;1.20;99.90;;;;;;5076571;28;20052;-75
2024/01/21 05:22:36;;;;;;;5.05;4.55;;;1.20;99.90;;;;;;5076027;28;20052;-75
2024/01/21 05:25:03;;;;;;;6.43;4.10;;;1.30;99.90;;;;;;5087212;28;20051;-75
2024/01/21 05:27:29;;;;;;;7.22;4.68;;;1.30;99.90;;;;;;5073910;28;20520;-75
2024/01/21 05:29:55;;;;;;;5.28;4.13;;;1.30;99.90;;;;;;5085423;28;20052;-75
2024/01/21 05:32:20;;;;;;;6.88;5.35;;;1.30;99.90;;;;;;5087948;28;20044;-75
2024/01/21 05:34:46;;;;;;;6.35;4.50;;;1.40;99.90;;;;;;5078108;28;20064;-75
2024/01/21 05:37:12;;;;;;;5.40;4.20;;;1.40;99.90;;;;;;5079626;28;20127;-75
2024/01/21 05:39:37;;;;;;;6.22;5.05;;;1.40;99.90;;;;;;5074555;28;20486;-75
2024/01/21 05:42:05;;;;;;;5.80;4.60;;;1.50;99.90;;;;;;5083973;28;20039;-75
2024/01/21 05:44:31;;;;;;;6.35;4.18;;;1.50;99.90;;;;;;5081345;28;20101;-75
2024/01/21 05:46:57;;;;;;;5.63;4.35;;;1.50;99.90;;;;;;5070833;28;20608;-75
2024/01/21 05:49:23;;;;;;;14.98;5.38;;;1.50;99.90;;;;;;5079674;28;20039;-75
2024/01/21 05:51:49;;;;;;;6.65;4.82;;;1.60;99.90;;;;;;5083971;28;20090;-74
2024/01/21 05:54:15;;;;;;;8.88;5.30;;;1.60;99.90;;;;;;5076112;28;20991;-75
2024/01/21 05:56:41;;;;;;;7.10;6.13;;;1.60;99.90;;;;;;5083332;28;20065;-75
2024/01/21 05:59:06;;;;;;;7.57;5.57;;;1.70;99.90;;;;;;5078358;28;20056;-75
2024/01/21 06:01:32;;;;;;;8.02;5.70;;;1.70;99.90;;;;;;5085844;28;20058;-75
2024/01/21 06:03:58;;;;;;;7.38;5.72;;;1.70;99.90;;;;;;5086671;28;20048;-75
2024/01/21 06:06:23;;;;;;;9.45;5.72;;;1.70;99.90;;;;;;5082542;28;20036;-75
2024/01/21 06:08:49;;;;;;;7.30;5.97;;;1.70;99.90;;;;;;5079316;28;20052;-75
2024/01/21 06:11:14;;;;;;;10.00;6.65;;;1.80;99.90;;;;;;5081932;28;20101;-75
2024/01/21 06:13:40;;;;;;;7.43;6.55;;;1.80;99.90;;;;;;5079584;28;20104;-75
2024/01/21 06:16:06;;;;;;;11.55;7.80;;;1.80;99.90;;;;;;5086483;28;20052;-75
2024/01/21 06:18:31;;;;;;;10.23;7.55;;;1.80;99.90;;;;;;5083491;28;20066;-74
2024/01/21 06:20:57;;;;;;;10.52;7.00;;;1.90;99.90;;;;;;5073466;28;20249;-74
2024/01/21 06:23:23;;;;;;;8.90;6.85;;;1.90;99.90;;;;;;5073154;28;20032;-74
2024/01/21 06:25:49;;;;;;;10.93;8.02;;;1.90;99.90;;;;;;5085156;28;20058;-75
2024/01/21 06:28:16;;;;;;;12.63;8.25;;;1.90;99.90;;;;;;5074948;28;20705;-75
2024/01/21 06:30:42;;;;;;;12.13;9.27;;;2.00;99.90;;;;;;5067852;28;20056;-75
2024/01/21 06:33:07;;;;;;;10.85;9.07;;;2.00;99.90;;;;;;5081765;28;20063;-75
2024/01/21 06:35:33;;;;;;;10.88;8.15;;;2.00;99.90;;;;;;5076580;28;20487;-75
2024/01/21 06:37:59;;;;;;;12.45;9.10;;;2.00;99.90;;;;;;5074369;28;20391;-75
2024/01/21 06:40:24;;;;;;;14.50;8.43;;;2.00;99.90;;;;;;5078792;28;20485;-75
2024/01/21 06:42:50;;;;;;;12.60;8.30;;;2.00;99.90;;;;;;5085346;28;20093;-75
2024/01/21 06:45:16;;;;;;;12.38;8.90;;;1.90;99.90;;;;;;5079057;28;20061;-75
2024/01/21 06:47:42;;;;;;;16.90;10.32;;;1.90;99.90;;;;;;5076701;28;20048;-75
2024/01/21 06:50:09;;;;;;;18.63;10.25;;;1.90;99.90;;;;;;5080053;28;20043;-75
2024/01/21 06:52:35;;;;;;;23.52;9.73;;;1.90;99.90;;;;;;5076637;28;20071;-75
2024/01/21 06:55:01;;;;;;;14.30;10.18;;;1.90;99.90;;;;;;5056955;28;20056;-75
2024/01/21 06:57:27;;;;;;;11.85;9.60;;;1.90;99.90;;;;;;5079444;28;20051;-75
2024/01/21 06:59:54;;;;;;;12.30;10.13;;;1.90;99.90;;;;;;5076590;28;20044;-75
2024/01/21 07:02:19;;;;;;;14.52;9.95;;;1.90;99.90;;;;;;5069947;28;20456;-75
2024/01/21 07:04:45;;;;;;;17.73;11.32;;;1.90;99.90;;;;;;5075856;28;20044;-75
2024/01/21 07:07:11;;;;;;;15.18;11.40;;;1.90;99.90;;;;;;5073995;28;20044;-75
2024/01/21 07:09:41;;;;;;;18.70;11.10;;;1.80;99.90;;;;;;5075963;28;20501;-75
2024/01/21 07:12:07;;;;;;;16.90;12.00;;;1.80;99.90;;;;;;5074000;28;20489;-75
2024/01/21 07:14:34;;;;;;;19.67;12.85;;;1.80;99.90;;;;;;5070378;28;20715;-75
2024/01/21 07:17:01;;;;;;;18.67;12.93;;;1.70;99.90;;;;;;5066417;28;20063;-75
2024/01/21 07:19:28;;;;;;;18.30;12.73;;;1.70;99.90;;;;;;5079237;28;20044;-75
2024/01/21 07:21:53;;;;;;;16.48;13.52;;;1.70;99.90;;;;;;5078308;28;20051;-75
2024/01/21 07:24:19;;;;;;;19.58;14.20;;;1.80;99.90;;;;;;5079988;28;20040;-76
2024/01/21 07:26:45;;;;;;;19.45;13.85;;;1.80;99.90;;;;;;5079231;28;20060;-75
2024/01/21 07:29:13;;;;;;;20.05;14.90;;;1.70;99.90;;;;;;5070507;28;20135;-75
2024/01/21 07:31:39;;;;;;;23.13;14.77;;;1.70;99.90;;;;;;5072348;28;20054;-76
2024/01/21 07:34:09;;;;;;;19.58;14.68;;;1.80;99.90;;;;;;5077635;28;20062;-75
2024/01/21 07:36:35;;;;;;;20.02;15.35;;;1.80;99.90;;;;;;5078692;28;20084;-75
2024/01/21 07:39:03;;;;;;;18.40;14.77;;;1.80;99.90;;;;;;5078201;28;20047;-75
2024/01/21 07:41:29;;;;;;;18.30;13.63;;;1.70;99.90;;;;;;5076072;28;20093;-75
2024/01/21 07:43:54;;;;;;;18.80;14.75;;;1.70;99.90;;;;;;5080577;28;20041;-75
2024/01/21 07:46:20;;;;;;;21.17;14.27;;;1.70;99.90;;;;;;5071310;28;20056;-75
2024/01/21 07:48:45;;;;;;;24.58;14.32;;;1.70;99.90;;;;;;5065108;28;20037;-75
2024/01/21 07:51:11;;;;;;;20.27;14.80;;;1.60;99.90;;;;;;5081545;28;20051;-75
2024/01/21 07:53:37;;;;;;;20.30;14.55;;;1.60;99.90;;;;;;5076766;28;20052;-75
2024/01/21 07:56:02;;;;;;;20.42;14.85;;;1.60;99.90;;;;;;5077512;28;20106;-75
2024/01/21 07:58:28;;;;;;;23.55;16.13;;;1.60;99.90;;;;;;5079467;28;20094;-75
2024/01/21 08:00:54;;;;;;;23.42;14.98;;;1.60;99.90;;;;;;5075564;28;20086;-75
2024/01/21 08:03:19;;;;;;;18.63;14.25;;;1.60;99.90;;;;;;5088251;28;20160;-74
2024/01/21 08:05:45;;;;;;;21.67;15.48;;;1.60;99.90;;;;;;5057824;28;20160;-75
2024/01/21 08:08:10;;;;;;;21.00;15.45;;;1.60;99.90;;;;;;5085481;28;20044;-75
2024/01/21 08:10:36;;;;;;;19.40;14.98;;;1.60;99.90;;;;;;5086190;28;20679;-75
2024/01/21 08:13:02;;;;;;;24.20;15.60;;;1.60;99.90;;;;;;5077502;28;20040;-75
2024/01/21 08:15:27;;;;;;;20.05;14.95;;;1.60;99.90;;;;;;5080373;28;20040;-75
2024/01/21 08:17:53;;;;;;;25.13;16.10;;;1.60;99.90;;;;;;5083735;28;20048;-75
2024/01/21 08:20:19;;;;;;;19.48;14.18;;;1.60;99.90;;;;;;5076934;28;20127;-75
2024/01/21 08:22:45;;;;;;;18.90;14.23;;;1.60;99.90;;;;;;5072733;28;20520;-75
2024/01/21 08:25:10;;;;;;;26.17;16.08;;;1.60;99.90;;;;;;5075042;28;20044;-75
2024/01/21 08:27:36;;;;;;;22.92;17.65;;;1.60;99.90;;;;;;5078408;28;20587;-75
2024/01/21 08:30:04;;;;;;;28.90;17.20;;;1.70;99.90;;;;;;5074087;28;20113;-76
2024/01/21 08:32:29;;;;;;;24.67;17.33;;;1.70;99.90;;;;;;5082370;28;20051;-75
2024/01/21 08:34:55;;;;;;;19.17;14.77;;;1.70;99.90;;;;;;5079532;28;20040;-75
2024/01/21 08:37:21;;;;;;;20.48;14.75;;;1.80;99.90;;;;;;5068442;28;20040;-76
2024/01/21 08:39:48;;;;;;;20.67;16.05;;;1.80;99.90;;;;;;5081764;28;20105;-76
2024/01/21 08:42:14;;;;;;;23.98;16.85;;;1.90;99.90;;;;;;5079338;28;20559;-75
2024/01/21 08:44:39;;;;;;;19.73;15.65;;;1.90;99.90;;;;;;5078261;28;20076;-76
2024/01/21 08:47:05;;;;;;;19.13;16.13;;;1.90;99.90;;;;;;5085510;28;20044;-76
2024/01/21 08:49:30;;;;;;;24.23;17.10;;;2.00;99.90;;;;;;5075689;28;20048;-75
2024/01/21 08:51:56;;;;;;;22.35;15.95;;;2.00;99.90;;;;;;5075758;28;20751;-76
2024/01/21 08:54:22;;;;;;;23.67;16.45;;;2.00;99.90;;;;;;5074436;28;20051;-76
2024/01/21 08:56:48;;;;;;;25.05;15.95;;;2.00;99.90;;;;;;5068626;28;20052;-75
2024/01/21 08:59:14;;;;;;;20.48;15.35;;;2.00;99.90;;;;;;5073487;28;20045;-76
2024/01/21 09:01:39;;;;;;;25.42;17.42;;;2.00;99.90;;;;;;5074673;28;20097;-76
2024/01/21 09:04:05;;;;;;;21.08;16.55;;;2.00;99.90;;;;;;5082900;28;20134;-77
2024/01/21 09:06:30;;;;;;;21.95;16.55;;;2.00;99.90;;;;;;5083338;28;20048;-76
2024/01/21 09:08:56;;;;;;;20.98;15.77;;;2.00;99.90;;;;;;5075942;28;20047;-76
2024/01/21 09:11:23;;;;;;;22.73;15.95;;;2.00;99.90;;;;;;5071287;28;20044;-76
2024/01/21 09:13:49;;;;;;;22.60;17.05;;;2.10;99.90;;;;;;5078945;28;20076;-76
2024/01/21 09:16:19;;;;;;;21.40;15.82;;;2.10;99.90;;;;;;5079848;28;20072;-76
2024/01/21 09:18:46;;;;;;;23.25;15.52;;;2.10;99.90;;;;;;5072688;28;20556;-76
2024/01/21 09:21:12;;;;;;;22.00;16.83;;;2.20;99.90;;;;;;5077167;28;20044;-76
2024/01/21 09:23:37;;;;;;;22.10;16.08;;;2.20;99.90;;;;;;5080003;28;20052;-76
2024/01/21 09:26:03;;;;;;;20.58;16.23;;;2.20;99.90;;;;;;5083712;28;20105;-76
2024/01/21 09:28:29;;;;;;;25.08;17.30;;;2.20;99.90;;;;;;5090254;28;20051;-75
2024/01/21 09:30:54;;;;;;;20.30;15.63;;;2.20;99.90;;;;;;5081654;28;20087;-76
2024/01/21 09:33:20;;;;;;;20.85;15.63;;;2.30;99.90;;;;;;5087414;28;20082;-76
2024/01/21 09:35:46;;;;;;;21.98;16.02;;;2.30;99.90;;;;;;5077669;28;20051;-76
2024/01/21 09:38:14;;;;;;;23.73;16.92;;;2.30;99.90;;;;;;5077967;28;20057;-76
2024/01/21 09:40:40;;;;;;;20.15;16.40;;;2.30;99.90;;;;;;5076996;28;20068;-76
2024/01/21 09:43:06;;;;;;;22.48;16.10;;;2.30;99.90;;;;;;5079379;28;20045;-76
2024/01/21 09:45:34;;;;;;;18.48;15.80;;;2.30;99.90;;;;;;5074969;28;20106;-76
2024/01/21 09:48:00;;;;;;;22.30;16.80;;;2.30;99.90;;;;;;5053216;28;20041;-77
2024/01/21 09:50:27;;;;;;;21.65;17.10;;;2.30;99.90;;;;;;5077228;28;20413;-77
2024/01/21 09:52:52;;;;;;;20.95;16.90;;;2.40;99.90;;;;;;5074394;28;20052;-78
2024/01/21 09:55:18;;;;;;;22.35;16.67;;;2.40;99.90;;;;;;5079076;28;20543;-77
2024/01/21 09:57:45;;;;;;;22.15;15.38;;;2.50;99.90;;;;;;5068755;28;20075;-76
2024/01/21 10:00:13;;;;;;;24.50;16.23;;;2.60;99.90;;;;;;5080042;28;20058;-77
2024/01/21 10:02:42;;;;;;;29.20;16.48;;;2.60;99.90;;;;;;5065267;28;20045;-77
2024/01/21 10:05:09;;;;;;;;;;;2.60;99.90;;;;;;5082686;28;20048;-78
2024/01/21 10:07:37;;;;;;;19.92;15.60;;;2.60;99.90;;;;;;5076886;28;19960;-77
2024/01/21 10:10:03;;;;;;;23.37;16.23;;;2.60;99.90;;;;;;5070946;28;20494;-78
2024/01/21 10:12:28;;;;;;;20.00;15.65;;;2.60;99.90;;;;;;5077854;28;20305;-78
2024/01/21 10:14:54;;;;;;;22.27;16.77;;;2.60;99.90;;;;;;5076779;28;20066;-78
2024/01/21 10:17:24;;;;;;;25.50;17.13;;;2.70;99.90;;;;;;5072413;28;20043;-78
2024/01/21 10:19:53;;;;;;;21.67;15.95;;;2.70;99.90;;;;;;5080796;28;20044;-78
2024/01/21 10:22:18;;;;;;;;;;;2.70;99.90;;;;;;5080097;28;20040;-77
2024/01/21 10:24:46;;;;;;;23.77;17.58;;;2.70;99.90;;;;;;5080525;28;19974;-77
2024/01/21 10:27:12;;;;;;;24.08;17.90;;;2.70;99.90;;;;;;5075361;28;20405;-77
2024/01/21 10:29:45;;;;;;;24.45;17.33;;;2.70;99.90;;;;;;5078873;28;20044;-77
2024/01/21 10:32:15;;;;;;;18.55;15.82;;;2.80;99.90;;;;;;5085910;28;20047;-77
2024/01/21 10:34:49;;;;;;;22.02;16.02;;;2.80;99.90;;;;;;5084144;28;20552;-77
2024/01/21 10:37:15;;;;;;;22.55;17.60;;;2.80;99.90;;;;;;5086394;28;20497;-77
2024/01/21 10:39:44;;;;;;;18.85;15.85;;;2.90;99.90;;;;;;5079465;28;20110;-77
2024/01/21 10:42:12;;;;;;;21.33;16.30;;;2.90;99.90;;;;;;5084780;28;20052;-77
2024/01/21 10:44:39;;;;;;;19.80;14.90;;;2.90;99.90;;;;;;5081139;28;20051;-77
2024/01/21 10:47:07;;;;;;;18.98;15.30;;;2.90;99.90;;;;;;5083032;28;20078;-77
2024/01/21 10:49:33;;;;;;;17.35;14.95;;;2.90;99.90;;;;;;5079020;28;20417;-77
2024/01/21 10:51:59;;;;;;;19.17;16.17;;;2.90;99.90;;;;;;5083274;28;20401;-76
2024/01/21 10:54:26;;;;;;;21.27;15.77;;;2.90;99.90;;;;;;5082183;28;20052;-77
2024/01/21 10:56:52;;;;;;;19.83;15.73;;;3.00;99.90;;;;;;5071055;28;20048;-77
2024/01/21 10:59:19;;;;;;;19.30;15.82;;;3.00;99.90;;;;;;5078978;28;20052;-77
2024/01/21 11:01:45;;;;;;;20.13;15.25;;;3.00;99.90;;;;;;5075926;28;20044;-77
2024/01/21 11:04:12;;;;;;;24.67;16.42;;;3.00;99.90;;;;;;5073504;28;20051;-76
2024/01/21 11:06:46;;;;;;;20.13;15.63;;;3.00;99.90;;;;;;5077156;28;20119;-77
2024/01/21 11:09:16;;;;;;;20.80;15.13;;;3.00;99.90;;;;;;5074016;28;20044;-77
2024/01/21 11:11:43;;;;;;;19.65;16.08;;;3.00;99.90;;;;;;5055236;28;20054;-76
2024/01/21 11:14:34;;;;;;;20.98;16.50;;;3.00;99.90;;;;;;5074268;28;20494;-77
2024/01/21 11:17:02;;;;;;;17.65;15.77;;;3.00;99.90;;;;;;5070335;28;20048;-77
2024/01/21 11:19:49;;;;;;;18.27;15.50;;;3.00;99.90;;;;;;5074555;28;20099;-76
2024/01/21 11:22:16;;;;;;;16.52;14.43;;;3.00;99.90;;;;;;5071851;28;20536;-77
2024/01/21 11:24:45;;;;;;;18.90;15.18;;;3.00;99.90;;;;;;5066438;28;20048;-77
2024/01/21 11:27:21;;;;;;;19.75;15.43;;;3.00;99.90;;;;;;5067013;28;20048;-77
2024/01/21 11:30:10;;;;;;;17.75;14.52;;;3.10;99.90;;;;;;5069733;28;20056;-78
2024/01/21 11:32:40;;;;;;;;;;;3.10;99.90;;;;;;5072654;28;20052;-78
2024/01/21 11:35:13;;;;;;;24.10;15.18;;;3.10;99.90;;;;;;5050248;28;19927;-77
2024/01/21 11:37:40;;;;;;;18.33;15.63;;;3.10;99.90;;;;;;5067895;28;20083;-77
2024/01/21 11:40:06;;;;;;;17.17;14.93;;;3.10;99.90;;;;;;5049959;28;20051;-79
2024/01/21 11:42:34;;;;;;;20.38;16.13;;;3.20;99.90;;;;;;5059959;28;20071;-77
2024/01/21 11:45:05;;;;;;;16.52;14.25;;;3.20;99.90;;;;;;5059172;28;20080;-77
2024/01/21 11:47:31;;;;;;;17.02;13.90;;;3.20;99.90;;;;;;5059469;28;20048;-77
2024/01/21 11:50:00;;;;;;;20.30;15.15;;;3.20;99.90;;;;;;5059110;28;20132;-78
2024/01/21 11:52:25;;;;;;;18.10;14.65;;;3.20;99.90;;;;;;5059725;28;20712;-78
2024/01/21 11:54:51;;;;;;;19.80;15.23;;;3.20;99.90;;;;;;5059995;28;20148;-77
2024/01/21 11:57:17;;;;;;;17.98;15.27;;;3.20;99.90;;;;;;5057893;28;20040;-78
2024/01/21 11:59:42;;;;;;;18.42;15.77;;;3.20;99.90;;;;;;5058972;28;20048;-77
2024/01/21 12:02:08;;;;;;;15.30;13.68;;;3.20;99.90;;;;;;5060031;28;20513;-78
2024/01/21 12:04:34;;;;;;;19.25;15.27;;;3.20;99.90;;;;;;5074128;28;20072;-78
2024/01/21 12:07:01;;;;;;;19.20;16.52;;;3.20;99.90;;;;;;5060328;28;20144;-78
2024/01/21 12:09:28;;;;;;;17.42;15.60;;;3.20;99.90;;;;;;5060082;28;20061;-78
2024/01/21 12:11:54;;;;;;;18.40;14.82;;;3.20;99.90;;;;;;5058260;28;20049;-78
2024/01/21 12:14:22;;;;;;;17.30;15.48;;;3.20;99.90;;;;;;5068958;28;20054;-80
2024/01/21 12:16:53;;;;;;;19.77;15.38;;;3.20;99.90;;;;;;5068865;28;20270;-78
2024/01/21 12:19:19;;;;;;;18.58;15.45;;;3.20;99.90;;;;;;5069577;28;20052;-78
2024/01/21 12:21:45;;;;;;;21.08;15.77;;;3.20;99.90;;;;;;5070163;28;20814;-78
2024/01/21 12:24:11;;;;;;;17.20;15.20;;;3.20;99.90;;;;;;5070196;28;20041;-78
2024/01/21 12:26:37;;;;;;;19.20;17.02;;;3.20;99.90;;;;;;5068816;28;20052;-77
2024/01/21 12:29:09;;;;;;;17.23;15.00;;;3.20;99.90;;;;;;5067378;28;20060;-77
2024/01/21 12:31:41;;;;;;;16.92;15.13;;;3.20;99.90;;;;;;5058146;28;20050;-78
2024/01/21 12:34:09;;;;;;;19.05;15.32;;;3.20;99.90;;;;;;5066839;28;20055;-77
2024/01/21 12:36:41;;;;;;;19.27;14.53;;;3.30;99.90;;;;;;5069910;28;20079;-77
2024/01/21 12:39:09;;;;;;;17.85;15.70;;;3.30;99.90;;;;;;5072807;28;20091;-78